createdAt,value
2022-12-01T00:01:06.604Z,60.37
2022-12-01T00:03:33.616Z,60.49
2022-12-01T00:06:05.171Z,60.89
2022-12-01T00:08:32.415Z,60.62
2022-12-01T00:11:07.169Z,61.20
2022-12-01T00:13:34.396Z,61.21
2022-12-01T00:16:15.384Z,61.87
2022-12-01T00:18:43.041Z,61.37
2022-12-01T00:21:21.500Z,61.20
2022-12-01T00:23:51.031Z,60.91
2022-12-01T00:26:18.550Z,61.63
2022-12-01T00:28:49.758Z,61.79
2022-12-01T00:31:16.308Z,60.81
2022-12-01T00:33:43.058Z,61.70
2022-12-01T00:36:10.029Z,61.50
2022-12-01T00:38:37.069Z,61.22
2022-12-01T00:41:04.138Z,61.54
2022-12-01T00:43:30.679Z,61.29
2022-12-01T00:45:57.354Z,62.14
2022-12-01T00:48:23.989Z,61.39
2022-12-01T00:50:52.057Z,61.53
2022-12-01T00:53:19.025Z,61.61
2022-12-01T00:55:45.855Z,62.15
2022-12-01T00:58:12.499Z,62.12
2022-12-01T01:00:39.713Z,61.15
2022-12-01T01:03:07.101Z,61.49
2022-12-01T01:05:37.800Z,61.07
2022-12-01T01:08:11.648Z,60.61
2022-12-01T01:10:42.968Z,60.68
2022-12-01T01:13:10.243Z,60.98
2022-12-01T01:15:37.357Z,60.61
2022-12-01T01:18:05.011Z,60.47
2022-12-01T01:20:31.845Z,60.46
2022-12-01T01:22:58.539Z,60.58
2022-12-01T01:25:25.414Z,61.53
2022-12-01T01:27:51.885Z,61.53
2022-12-01T01:30:18.697Z,61.25
2022-12-01T01:32:45.186Z,62.00
2022-12-01T01:35:11.780Z,61.07
2022-12-01T01:37:38.361Z,60.66
2022-12-01T01:40:05.823Z,60.24
2022-12-01T01:42:32.399Z,61.98
2022-12-01T01:44:59.570Z,62.07
2022-12-01T01:47:35.860Z,61.27
2022-12-01T01:50:09.306Z,61.25
2022-12-01T01:52:38.532Z,61.12
2022-12-01T01:55:05.546Z,61.25
2022-12-01T01:57:33.370Z,61.70
2022-12-01T02:00:11.269Z,60.90
2022-12-01T02:02:44.967Z,60.45
2022-12-01T02:05:27.143Z,61.15
2022-12-01T02:07:56.168Z,62.03
2022-12-01T02:10:39.389Z,62.15
2022-12-01T02:13:13.944Z,62.06
2022-12-01T02:15:56.569Z,61.89
2022-12-01T02:18:44.523Z,61.49
2022-12-01T02:21:40.536Z,61.20
2022-12-01T02:24:44.525Z,60.37
2022-12-01T02:27:52.286Z,59.85
2022-12-01T02:30:57.377Z,61.23
2022-12-01T02:33:27.848Z,60.20
2022-12-01T02:35:57.198Z,60.60
2022-12-01T02:38:47.487Z,59.82
2022-12-01T02:41:26.998Z,60.54
2022-12-01T02:44:15.979Z,60.59
2022-12-01T02:46:49.947Z,60.33
2022-12-01T02:49:19.806Z,61.23
2022-12-01T02:51:46.327Z,60.62
2022-12-01T02:54:14.686Z,60.69
2022-12-01T02:56:44.419Z,61.52
2022-12-01T02:59:12.188Z,61.65
2022-12-01T03:02:04.311Z,60.47
2022-12-01T03:05:00.012Z,60.67
2022-12-01T03:07:35.718Z,59.78
2022-12-01T03:10:37.056Z,59.84
2022-12-01T03:13:20.167Z,60.35
2022-12-01T03:16:05.723Z,61.28
2022-12-01T03:18:56.152Z,60.89
2022-12-01T03:21:41.709Z,61.18
2022-12-01T03:24:11.758Z,60.65
2022-12-01T03:26:41.345Z,61.21
2022-12-01T03:29:15.908Z,61.96
2022-12-01T03:31:47.704Z,61.97
2022-12-01T03:34:18.331Z,61.87
2022-12-01T03:36:52.907Z,60.97
2022-12-01T03:39:23.240Z,61.12
2022-12-01T03:41:58.489Z,61.01
2022-12-01T03:44:30.077Z,60.20
2022-12-01T03:47:02.100Z,60.77
2022-12-01T03:49:29.016Z,61.01
2022-12-01T03:52:03.275Z,60.66
2022-12-01T03:54:44.971Z,60.27
2022-12-01T03:57:15.079Z,62.29
2022-12-01T03:59:42.780Z,61.87
2022-12-01T04:02:09.375Z,61.79
2022-12-01T04:04:35.993Z,61.99
2022-12-01T04:07:02.745Z,61.18
2022-12-01T04:09:29.207Z,61.42
2022-12-01T04:12:14.260Z,60.73
2022-12-01T04:14:41.971Z,60.13
2022-12-01T04:17:09.055Z,61.56
2022-12-01T04:19:35.569Z,60.90
2022-12-01T04:22:02.084Z,61.44
2022-12-01T04:24:28.791Z,60.99
2022-12-01T04:26:55.271Z,61.81
2022-12-01T04:29:21.776Z,60.60
2022-12-01T04:31:48.303Z,59.88
2022-12-01T04:34:14.817Z,61.67
2022-12-01T04:36:41.355Z,60.55
2022-12-01T04:39:07.869Z,61.14
2022-12-01T04:41:34.478Z,61.01
2022-12-01T04:44:00.991Z,61.71
2022-12-01T04:46:27.831Z,61.43
2022-12-01T04:48:54.499Z,62.73
2022-12-01T04:51:22.251Z,61.96
2022-12-01T04:53:50.009Z,62.29
2022-12-01T04:56:16.576Z,62.01
2022-12-01T04:58:43.298Z,61.70
2022-12-01T05:01:14.574Z,61.46
2022-12-01T05:03:43.462Z,61.18
2022-12-01T05:06:15.264Z,60.80
2022-12-01T05:08:41.883Z,61.28
2022-12-01T05:11:11.229Z,60.64
2022-12-01T05:13:40.047Z,60.78
2022-12-01T05:16:17.644Z,60.72
2022-12-01T05:18:47.870Z,62.06
2022-12-01T05:21:14.619Z,61.88
2022-12-01T05:23:41.147Z,62.14
2022-12-01T05:26:08.649Z,61.32
2022-12-01T05:28:35.533Z,61.20
2022-12-01T05:31:02.627Z,61.17
2022-12-01T05:33:29.987Z,61.56
2022-12-01T05:35:57.049Z,61.82
2022-12-01T05:38:24.178Z,62.85
2022-12-01T05:40:51.817Z,62.31
2022-12-01T05:43:21.661Z,62.12
2022-12-01T05:45:51.937Z,62.59
2022-12-01T05:48:18.549Z,63.02
2022-12-01T05:50:45.143Z,62.25
2022-12-01T05:53:13.668Z,62.46
2022-12-01T05:55:40.280Z,61.70
2022-12-01T05:58:07.400Z,61.27
2022-12-01T06:00:34.345Z,61.57
2022-12-01T06:03:01.020Z,61.87
2022-12-01T06:05:27.784Z,61.73
2022-12-01T06:07:54.417Z,63.76
2022-12-01T06:10:21.132Z,62.63
2022-12-01T06:12:47.705Z,62.16
2022-12-01T06:15:14.320Z,62.97
2022-12-01T06:17:40.814Z,63.05
2022-12-01T06:20:08.515Z,62.08
2022-12-01T06:22:35.076Z,62.53
2022-12-01T06:25:01.578Z,63.72
2022-12-01T06:27:28.337Z,64.16
2022-12-01T06:29:54.793Z,63.16
2022-12-01T06:32:21.336Z,63.08
2022-12-01T06:34:47.803Z,62.88
2022-12-01T06:37:15.664Z,63.27
2022-12-01T06:39:42.555Z,63.97
2022-12-01T06:42:09.384Z,63.19
2022-12-01T06:44:35.916Z,61.95
2022-12-01T06:47:02.457Z,62.21
2022-12-01T06:49:29.006Z,62.15
2022-12-01T06:51:55.648Z,61.70
2022-12-01T06:54:22.262Z,62.13
2022-12-01T06:56:48.773Z,62.36
2022-12-01T06:59:15.663Z,62.12
2022-12-01T07:01:42.489Z,62.03
2022-12-01T07:04:09.007Z,62.49
2022-12-01T07:06:35.532Z,62.86
2022-12-01T07:09:02.078Z,62.71
2022-12-01T07:11:30.038Z,63.28
2022-12-01T07:13:56.712Z,62.32
2022-12-01T07:16:23.424Z,62.38
2022-12-01T07:18:50.140Z,63.17
2022-12-01T07:21:17.181Z,63.33
2022-12-01T07:23:43.899Z,63.52
2022-12-01T07:26:12.788Z,63.21
2022-12-01T07:28:39.623Z,62.54
2022-12-01T07:31:17.147Z,62.61
2022-12-01T07:33:43.913Z,64.16
2022-12-01T07:36:11.740Z,63.22
2022-12-01T07:38:39.128Z,62.92
2022-12-01T07:41:08.163Z,63.02
2022-12-01T07:43:35.199Z,63.75
2022-12-01T07:46:10.032Z,63.10
2022-12-01T07:48:37.864Z,63.40
2022-12-01T07:51:09.692Z,63.54
2022-12-01T07:53:36.450Z,63.44
2022-12-01T07:56:08.377Z,63.97
2022-12-01T07:58:35.990Z,63.90
2022-12-01T08:01:15.475Z,64.62
2022-12-01T08:03:42.407Z,63.53
2022-12-01T08:06:09.667Z,65.08
2022-12-01T08:08:38.668Z,64.86
2022-12-01T08:11:07.654Z,64.43
2022-12-01T08:13:34.344Z,63.72
2022-12-01T08:16:06.495Z,62.75
2022-12-01T08:18:37.358Z,62.41
2022-12-01T08:21:04.807Z,62.21
2022-12-01T08:23:31.294Z,61.85
2022-12-01T08:26:02.190Z,62.14
2022-12-01T08:28:28.905Z,62.25
2022-12-01T08:30:56.097Z,61.19
2022-12-01T08:33:22.677Z,61.64
2022-12-01T08:35:49.258Z,60.53
2022-12-01T08:38:15.952Z,60.03
2022-12-01T08:40:42.404Z,59.77
2022-12-01T08:43:12.344Z,59.53
2022-12-01T08:45:45.207Z,58.63
2022-12-01T08:48:11.783Z,58.17
2022-12-01T08:50:38.259Z,58.34
2022-12-01T08:53:04.783Z,58.40
2022-12-01T08:55:31.328Z,58.00
2022-12-01T08:57:58.417Z,57.38
2022-12-01T09:00:25.265Z,57.39
2022-12-01T09:02:51.808Z,57.45
2022-12-01T09:05:18.572Z,57.61
2022-12-01T09:08:04.989Z,57.72
2022-12-01T09:10:31.501Z,57.01
2022-12-01T09:12:58.081Z,57.60
2022-12-01T09:15:24.584Z,58.49
2022-12-01T09:17:51.105Z,58.17
2022-12-01T09:20:17.592Z,57.64
2022-12-01T09:22:44.029Z,57.49
2022-12-01T09:25:14.666Z,57.11
2022-12-01T09:27:41.184Z,57.59
2022-12-01T09:30:08.312Z,57.09
2022-12-01T09:32:35.210Z,56.30
2022-12-01T09:35:01.663Z,56.12
2022-12-01T09:37:28.240Z,56.15
2022-12-01T09:39:55.788Z,55.59
2022-12-01T09:42:30.819Z,55.58
2022-12-01T09:45:02.787Z,56.33
2022-12-01T09:47:31.883Z,55.60
2022-12-01T09:50:07.633Z,55.91
2022-12-01T09:52:40.303Z,54.96
2022-12-01T09:55:12.039Z,55.02
2022-12-01T09:57:40.342Z,55.07
2022-12-01T10:00:16.526Z,54.94
2022-12-01T10:02:49.220Z,53.84
2022-12-01T10:05:22.765Z,54.05
2022-12-01T10:07:56.529Z,53.88
2022-12-01T10:10:30.784Z,52.95
2022-12-01T10:12:57.450Z,52.39
2022-12-01T10:15:30.010Z,52.10
2022-12-01T10:18:05.618Z,51.39
2022-12-01T10:20:39.544Z,51.28
2022-12-01T10:23:06.394Z,51.28
2022-12-01T10:25:41.507Z,51.70
2022-12-01T10:28:20.279Z,51.98
2022-12-01T10:30:51.797Z,52.13
2022-12-01T10:33:34.271Z,51.67
2022-12-01T10:36:00.936Z,52.86
2022-12-01T10:38:35.090Z,51.56
2022-12-01T10:41:02.676Z,51.18
2022-12-01T10:43:34.338Z,52.28
2022-12-01T10:46:25.399Z,51.56
2022-12-01T10:48:56.788Z,51.62
2022-12-01T10:51:23.848Z,51.51
2022-12-01T10:53:50.824Z,51.42
2022-12-01T10:56:19.518Z,51.55
2022-12-01T10:58:50.541Z,52.00
2022-12-01T11:01:20.911Z,51.35
2022-12-01T11:04:01.526Z,51.18
2022-12-01T11:06:29.704Z,50.31
2022-12-01T11:09:22.818Z,50.13
2022-12-01T11:12:01.729Z,49.77
2022-12-01T11:14:37.248Z,49.16
2022-12-01T11:17:22.524Z,49.54
2022-12-01T11:19:49.528Z,49.18
2022-12-01T11:22:22.323Z,49.67
2022-12-01T11:25:03.463Z,50.09
2022-12-01T11:27:51.160Z,49.87
2022-12-01T11:30:29.277Z,51.44
2022-12-01T11:32:58.544Z,51.73
2022-12-01T11:35:28.472Z,51.60
2022-12-01T11:38:28.205Z,51.16
2022-12-01T11:40:50.462Z,51.28
2022-12-01T11:43:24.940Z,51.70
2022-12-01T11:45:51.854Z,50.95
2022-12-01T11:48:25.900Z,51.40
2022-12-01T11:51:06.280Z,51.43
2022-12-01T11:53:34.697Z,52.36
2022-12-01T11:56:20.792Z,51.28
2022-12-01T11:58:48.772Z,51.32
2022-12-01T12:01:32.367Z,51.96
2022-12-01T12:04:03.853Z,50.74
2022-12-01T12:06:46.168Z,49.72
2022-12-01T12:09:54.551Z,50.43
2022-12-01T12:12:36.366Z,50.06
2022-12-01T12:15:18.465Z,51.33
2022-12-01T12:17:54.198Z,51.93
2022-12-01T12:20:29.718Z,51.24
2022-12-01T12:23:24.728Z,51.16
2022-12-01T12:26:06.520Z,50.62
2022-12-01T12:29:17.122Z,51.21
2022-12-01T12:32:04.798Z,51.23
2022-12-01T12:34:53.146Z,51.52
2022-12-01T12:37:35.498Z,51.92
2022-12-01T12:40:36.166Z,50.97
2022-12-01T12:43:14.855Z,50.69
2022-12-01T12:46:00.717Z,50.34
2022-12-01T12:48:30.197Z,51.24
2022-12-01T12:51:05.694Z,51.74
2022-12-01T12:53:38.904Z,51.33
2022-12-01T12:56:08.031Z,50.84
2022-12-01T12:58:37.844Z,49.87
2022-12-01T13:01:17.885Z,49.63
2022-12-01T13:04:00.729Z,49.47
2022-12-01T13:06:36.329Z,48.24
2022-12-01T13:09:11.509Z,48.28
2022-12-01T13:11:57.915Z,47.87
2022-12-01T13:14:38.641Z,48.08
2022-12-01T13:17:28.549Z,48.63
2022-12-01T13:19:55.029Z,48.31
2022-12-01T13:22:24.993Z,48.66
2022-12-01T13:24:51.454Z,49.21
2022-12-01T13:27:20.591Z,49.30
2022-12-01T13:29:49.898Z,49.07
2022-12-01T13:32:37.580Z,49.57
2022-12-01T13:35:29.360Z,49.04
2022-12-01T13:38:14.235Z,49.63
2022-12-01T13:40:40.649Z,49.13
2022-12-01T13:43:17.965Z,49.24
2022-12-01T13:45:44.683Z,48.90
2022-12-01T13:48:29.703Z,48.46
2022-12-01T13:51:01.955Z,48.84
2022-12-01T13:53:38.349Z,49.64
2022-12-01T13:56:07.980Z,49.22
2022-12-01T13:58:34.491Z,49.17
2022-12-01T14:01:19.748Z,49.61
2022-12-01T14:03:53.623Z,50.17
2022-12-01T14:06:46.347Z,50.96
2022-12-01T14:09:21.557Z,51.20
2022-12-01T14:12:00.827Z,50.84
2022-12-01T14:14:32.849Z,51.37
2022-12-01T14:17:02.487Z,51.75
2022-12-01T14:19:32.757Z,51.60
2022-12-01T14:22:05.543Z,51.60
2022-12-01T14:24:34.950Z,52.01
2022-12-01T14:27:02.392Z,51.27
2022-12-01T14:29:43.198Z,52.27
2022-12-01T14:32:09.648Z,52.58
2022-12-01T14:34:37.259Z,52.30
2022-12-01T14:37:05.581Z,51.97
2022-12-01T14:39:35.008Z,51.48
2022-12-01T14:42:04.211Z,51.45
2022-12-01T14:44:36.452Z,52.21
2022-12-01T14:47:21.497Z,51.64
2022-12-01T14:49:51.115Z,52.52
2022-12-01T14:52:48.250Z,51.74
2022-12-01T14:55:23.586Z,52.17
2022-12-01T14:57:52.536Z,52.39
2022-12-01T15:00:23.132Z,52.59
2022-12-01T15:02:55.084Z,52.86
2022-12-01T15:05:27.372Z,53.05
2022-12-01T15:08:40.260Z,53.54
2022-12-01T15:11:09.411Z,55.11
2022-12-01T15:13:54.917Z,55.21
2022-12-01T15:16:28.121Z,55.80
2022-12-01T15:18:55.496Z,55.07
2022-12-01T15:21:24.071Z,54.93
2022-12-01T15:23:56.601Z,54.57
2022-12-01T15:26:24.835Z,54.63
2022-12-01T15:29:04.791Z,54.89
2022-12-01T15:31:31.727Z,54.83
2022-12-01T15:33:58.342Z,55.29
2022-12-01T15:36:24.927Z,55.73
2022-12-01T15:38:51.508Z,55.64
2022-12-01T15:41:30.259Z,55.67
2022-12-01T15:44:00.385Z,55.70
2022-12-01T15:46:29.069Z,55.59
2022-12-01T15:49:20.753Z,55.25
2022-12-01T15:51:49.004Z,54.88
2022-12-01T15:54:23.174Z,54.30
2022-12-01T15:56:58.488Z,54.64
2022-12-01T15:59:36.575Z,54.15
2022-12-01T16:02:26.419Z,55.40
2022-12-01T16:05:20.059Z,55.67
2022-12-01T16:08:12.740Z,55.28
2022-12-01T16:10:36.410Z,55.94
2022-12-01T16:13:43.083Z,55.08
2022-12-01T16:16:31.191Z,55.35
2022-12-01T16:18:57.805Z,56.54
2022-12-01T16:21:25.347Z,55.86
2022-12-01T16:24:00.148Z,56.46
2022-12-01T16:26:26.897Z,56.07
2022-12-01T16:28:54.434Z,56.34
2022-12-01T16:31:21.148Z,57.39
2022-12-01T16:33:47.751Z,56.75
2022-12-01T16:36:14.840Z,56.09
2022-12-01T16:38:41.609Z,55.88
2022-12-01T16:41:16.630Z,57.14
2022-12-01T16:43:54.509Z,57.26
2022-12-01T16:46:30.762Z,57.77
2022-12-01T16:48:57.303Z,57.27
2022-12-01T16:51:29.979Z,58.00
2022-12-01T16:54:09.496Z,57.76
2022-12-01T16:56:35.985Z,56.65
2022-12-01T16:59:02.500Z,56.27
2022-12-01T17:01:29.464Z,56.48
2022-12-01T17:03:56.207Z,56.39
2022-12-01T17:06:22.784Z,56.86
2022-12-01T17:08:49.517Z,57.34
2022-12-01T17:11:15.989Z,57.05
2022-12-01T17:13:42.535Z,57.03
2022-12-01T17:16:15.231Z,56.29
2022-12-01T17:18:44.484Z,56.03
2022-12-01T17:21:11.594Z,54.92
2022-12-01T17:23:38.818Z,54.88
2022-12-01T17:26:10.522Z,54.19
2022-12-01T17:28:37.545Z,54.48
2022-12-01T17:31:04.657Z,53.11
2022-12-01T17:33:31.868Z,53.52
2022-12-01T17:36:03.941Z,53.77
2022-12-01T17:38:30.851Z,53.93
2022-12-01T17:41:02.435Z,53.60
2022-12-01T17:43:29.139Z,53.03
2022-12-01T17:45:56.015Z,53.76
2022-12-01T17:48:22.599Z,53.85
2022-12-01T17:50:49.098Z,53.12
2022-12-01T17:53:15.740Z,54.01
2022-12-01T17:55:42.480Z,53.47
2022-12-01T17:58:09.155Z,52.90
2022-12-01T18:00:35.747Z,53.43
2022-12-01T18:03:02.325Z,52.52
2022-12-01T18:05:29.494Z,52.85
2022-12-01T18:07:56.043Z,53.45
2022-12-01T18:10:22.552Z,53.36
2022-12-01T18:12:49.133Z,53.83
2022-12-01T18:15:17.371Z,53.06
2022-12-01T18:17:43.865Z,53.53
2022-12-01T18:20:10.688Z,53.07
2022-12-01T18:22:37.151Z,52.53
2022-12-01T18:25:03.694Z,52.30
2022-12-01T18:27:30.187Z,52.16
2022-12-01T18:29:56.717Z,51.67
2022-12-01T18:32:23.504Z,52.52
2022-12-01T18:34:50.366Z,52.42
2022-12-01T18:37:16.968Z,53.25
2022-12-01T18:39:43.456Z,52.54
2022-12-01T18:42:11.087Z,52.75
2022-12-01T18:44:38.845Z,52.65
2022-12-01T18:47:06.532Z,52.19
2022-12-01T18:49:33.221Z,52.57
2022-12-01T18:52:00.320Z,51.93
2022-12-01T18:54:26.960Z,52.29
2022-12-01T18:56:55.016Z,52.20
2022-12-01T18:59:21.694Z,52.52
2022-12-01T19:01:48.607Z,52.65
2022-12-01T19:04:16.523Z,51.71
2022-12-01T19:06:44.588Z,52.10
2022-12-01T19:09:12.508Z,52.32
2022-12-01T19:11:40.555Z,51.62
2022-12-01T19:14:08.114Z,52.70
2022-12-01T19:16:34.905Z,53.67
2022-12-01T19:19:01.823Z,53.31
2022-12-01T19:21:28.468Z,53.42
2022-12-01T19:23:54.966Z,53.10
2022-12-01T19:26:22.414Z,52.95
2022-12-01T19:28:49.259Z,53.36
2022-12-01T19:31:23.963Z,54.27
2022-12-01T19:33:52.323Z,54.67
2022-12-01T19:36:24.006Z,54.75
2022-12-01T19:38:50.876Z,56.28
2022-12-01T19:41:20.648Z,55.78
2022-12-01T19:43:47.543Z,55.82
2022-12-01T19:46:20.468Z,55.65
2022-12-01T19:48:47.700Z,56.31
2022-12-01T19:51:22.971Z,55.95
2022-12-01T19:53:50.126Z,56.40
2022-12-01T19:56:16.702Z,56.79
2022-12-01T19:58:44.157Z,56.34
2022-12-01T20:01:13.200Z,56.10
2022-12-01T20:03:40.904Z,54.92
2022-12-01T20:06:12.759Z,54.79
2022-12-01T20:08:39.627Z,54.91
2022-12-01T20:11:07.091Z,54.92
2022-12-01T20:13:38.570Z,55.38
2022-12-01T20:16:06.513Z,54.38
2022-12-01T20:18:33.108Z,55.00
2022-12-01T20:21:16.309Z,55.18
2022-12-01T20:23:44.459Z,55.69
2022-12-01T20:26:11.974Z,55.30
2022-12-01T20:28:39.589Z,56.68
2022-12-01T20:31:11.914Z,55.71
2022-12-01T20:33:39.329Z,55.94
2022-12-01T20:36:06.518Z,54.76
2022-12-01T20:38:33.182Z,55.25
2022-12-01T20:40:59.741Z,54.53
2022-12-01T20:43:26.372Z,54.63
2022-12-01T20:45:52.910Z,54.94
2022-12-01T20:48:19.502Z,55.29
2022-12-01T20:50:46.255Z,56.16
2022-12-01T20:53:13.109Z,56.22
2022-12-01T20:55:39.928Z,55.91
2022-12-01T20:58:09.836Z,56.08
2022-12-01T21:00:44.288Z,56.21
2022-12-01T21:03:11.744Z,55.59
2022-12-01T21:05:39.928Z,56.00
2022-12-01T21:08:08.197Z,54.87
2022-12-01T21:10:39.021Z,54.92
2022-12-01T21:13:42.299Z,55.38
2022-12-01T21:16:14.204Z,56.05
2022-12-01T21:18:51.986Z,56.27
2022-12-01T21:21:34.338Z,56.87
2022-12-01T21:24:13.982Z,56.04
2022-12-01T21:26:42.378Z,56.46
2022-12-01T21:29:24.741Z,55.95
2022-12-01T21:31:53.608Z,56.39
2022-12-01T21:34:25.207Z,55.68
2022-12-01T21:36:55.167Z,54.87
2022-12-01T21:39:23.481Z,54.04
2022-12-01T21:41:52.372Z,53.24
2022-12-01T21:44:20.872Z,53.56
2022-12-01T21:46:51.126Z,54.62
2022-12-01T21:49:19.769Z,54.42
2022-12-01T21:51:47.834Z,53.71
2022-12-01T21:54:22.295Z,53.16
2022-12-01T21:56:49.440Z,52.69
2022-12-01T21:59:22.441Z,52.92
2022-12-01T22:01:53.125Z,51.93
2022-12-01T22:04:25.299Z,51.57
2022-12-01T22:06:55.118Z,51.92
2022-12-01T22:09:33.622Z,51.78
2022-12-01T22:12:12.692Z,51.32
2022-12-01T22:14:39.153Z,52.05
2022-12-01T22:17:05.587Z,52.56
2022-12-01T22:19:38.172Z,51.35
2022-12-01T22:22:10.673Z,51.52
2022-12-01T22:24:49.191Z,51.71
2022-12-01T22:27:29.497Z,51.88
2022-12-01T22:29:58.328Z,51.24
2022-12-01T22:32:33.279Z,51.03
2022-12-01T22:35:26.027Z,51.93
2022-12-01T22:38:08.701Z,51.06
2022-12-01T22:41:06.061Z,50.72
2022-12-01T22:43:59.547Z,50.30
2022-12-01T22:46:30.614Z,50.56
2022-12-01T22:49:04.749Z,50.76
2022-12-01T22:51:42.007Z,50.28
2022-12-01T22:54:14.647Z,50.41
2022-12-01T22:56:46.525Z,50.60
2022-12-01T22:59:16.160Z,50.09
2022-12-01T23:01:54.251Z,50.16
2022-12-01T23:04:28.617Z,50.55
2022-12-01T23:07:22.957Z,49.85
2022-12-01T23:09:49.590Z,50.24
2022-12-01T23:12:30.487Z,50.69
2022-12-01T23:15:18.763Z,50.27
2022-12-01T23:17:45.210Z,50.23
2022-12-01T23:20:25.091Z,50.97
2022-12-01T23:22:56.242Z,51.63
2022-12-01T23:25:23.542Z,51.99
2022-12-01T23:27:52.911Z,51.21
2022-12-01T23:30:21.269Z,51.27
2022-12-01T23:32:56.319Z,51.97
2022-12-01T23:35:22.803Z,51.55
2022-12-01T23:37:49.265Z,52.28
2022-12-01T23:40:20.260Z,51.60
2022-12-01T23:42:47.178Z,51.62
2022-12-01T23:45:21.779Z,52.40
2022-12-01T23:47:49.370Z,52.32
2022-12-01T23:50:30.492Z,52.52
2022-12-01T23:52:57.578Z,52.24
2022-12-01T23:55:29.867Z,52.25
2022-12-01T23:57:57.127Z,52.43
